createdAt,value
2018-05-31T00:00:45.507Z,95191.19
2018-05-31T00:03:11.964Z,95183.91
2018-05-31T00:05:38.964Z,95190.41
2018-05-31T00:08:06.383Z,95190.77
2018-05-31T00:10:32.777Z,95165.69
2018-05-31T00:12:59.223Z,95183.19
2018-05-31T00:15:25.823Z,95178.49
2018-05-31T00:17:52.173Z,95172.94
2018-05-31T00:20:18.569Z,95171.19
2018-05-31T00:22:44.906Z,95161.19
2018-05-31T00:25:11.381Z,95187.55
2018-05-31T00:27:37.685Z,95177.22
2018-05-31T00:30:04.033Z,95179.58
2018-05-31T00:32:30.538Z,95174.25
2018-05-31T00:34:56.934Z,95168.29
2018-05-31T00:37:23.339Z,95175.32
2018-05-31T00:39:49.777Z,95179.69
2018-05-31T00:42:16.160Z,95177.77
2018-05-31T00:44:42.606Z,95175.42
2018-05-31T00:47:08.988Z,95162.34
2018-05-31T00:49:35.364Z,95161.23
2018-05-31T00:52:01.772Z,95177.55
2018-05-31T00:54:28.152Z,95166.80
2018-05-31T00:56:54.601Z,95169.08
2018-05-31T00:59:21.003Z,95170.72
2018-05-31T01:01:47.366Z,95164.92
2018-05-31T01:04:14.000Z,95165.87
2018-05-31T01:06:40.470Z,95154.68
2018-05-31T01:09:06.909Z,95157.61
2018-05-31T01:11:33.285Z,95145.67
2018-05-31T01:13:59.804Z,95140.72
2018-05-31T01:16:26.532Z,95149.39
2018-05-31T01:18:52.948Z,95145.40
2018-05-31T01:21:19.422Z,95153.13
2018-05-31T01:23:46.060Z,95150.28
2018-05-31T01:26:12.562Z,95149.74
2018-05-31T01:28:39.043Z,95151.72
2018-05-31T01:31:05.622Z,95153.47
2018-05-31T01:33:31.976Z,95150.52
2018-05-31T01:35:59.414Z,95145.89
2018-05-31T01:38:26.144Z,95145.56
2018-05-31T01:40:53.053Z,95152.55
2018-05-31T01:43:19.446Z,95129.01
2018-05-31T01:45:45.795Z,95148.52
2018-05-31T01:48:12.338Z,95146.77
2018-05-31T01:50:38.712Z,95146.52
2018-05-31T01:53:05.083Z,95149.39
2018-05-31T01:55:31.492Z,95151.73
2018-05-31T01:57:58.383Z,95147.69
2018-05-31T02:00:24.837Z,95155.84
2018-05-31T02:02:51.292Z,95149.69
2018-05-31T02:05:17.827Z,95150.80
2018-05-31T02:07:44.208Z,95146.16
2018-05-31T02:10:10.573Z,95154.44
2018-05-31T02:12:37.122Z,95155.95
2018-05-31T02:15:03.473Z,95156.47
2018-05-31T02:17:29.825Z,95150.86
2018-05-31T02:19:56.276Z,95150.58
2018-05-31T02:22:22.679Z,95139.52
2018-05-31T02:24:49.078Z,95167.66
2018-05-31T02:27:15.551Z,95167.84
2018-05-31T02:29:41.928Z,95142.02
2018-05-31T02:32:08.423Z,95163.77
2018-05-31T02:34:34.916Z,95173.41
2018-05-31T02:37:01.315Z,95174.02
2018-05-31T02:39:27.815Z,95164.05
2018-05-31T02:41:54.349Z,95154.76
2018-05-31T02:44:20.794Z,95170.73
2018-05-31T02:46:47.238Z,95176.42
2018-05-31T02:49:13.607Z,95171.66
2018-05-31T02:51:40.176Z,95175.05
2018-05-31T02:54:06.625Z,95168.52
2018-05-31T02:56:33.059Z,95178.92
2018-05-31T02:58:59.457Z,95184.02
2018-05-31T03:01:25.957Z,95184.95
2018-05-31T03:03:52.316Z,95182.87
2018-05-31T03:06:18.798Z,95182.33
2018-05-31T03:08:45.554Z,95190.52
2018-05-31T03:11:11.967Z,95187.70
2018-05-31T03:13:38.340Z,95191.58
2018-05-31T03:16:05.021Z,95191.63
2018-05-31T03:18:31.472Z,95173.00
2018-05-31T03:20:57.836Z,95194.28
2018-05-31T03:23:24.242Z,95197.42
2018-05-31T03:25:50.732Z,95203.25
2018-05-31T03:28:17.113Z,95201.27
2018-05-31T03:30:43.581Z,95203.61
2018-05-31T03:33:09.977Z,95206.96
2018-05-31T03:35:36.408Z,95195.22
2018-05-31T03:38:03.016Z,95214.83
2018-05-31T03:40:29.395Z,95206.70
2018-05-31T03:42:55.815Z,95201.30
2018-05-31T03:45:22.308Z,95203.47
2018-05-31T03:47:48.708Z,95199.25
2018-05-31T03:50:15.145Z,95202.53
2018-05-31T03:52:41.534Z,95205.98
2018-05-31T03:55:07.896Z,95211.64
2018-05-31T03:57:34.280Z,95201.65
2018-05-31T04:00:00.687Z,95220.23
2018-05-31T04:02:27.080Z,95220.36
2018-05-31T04:04:53.432Z,95217.11
2018-05-31T04:07:19.769Z,95219.66
2018-05-31T04:09:46.183Z,95219.31
2018-05-31T04:12:12.613Z,95218.48
2018-05-31T04:14:39.046Z,95218.20
2018-05-31T04:17:05.454Z,95224.09
2018-05-31T04:19:31.810Z,95212.73
2018-05-31T04:21:58.333Z,95217.70
2018-05-31T04:24:24.973Z,95212.50
2018-05-31T04:26:51.403Z,95218.34
2018-05-31T04:29:17.831Z,95227.70
2018-05-31T04:31:44.496Z,95204.74
2018-05-31T04:34:10.949Z,95212.36
2018-05-31T04:36:37.336Z,95221.46
2018-05-31T04:39:03.784Z,95217.44
2018-05-31T04:41:30.255Z,95215.48
2018-05-31T04:43:56.600Z,95219.83
2018-05-31T04:46:22.949Z,95221.11
2018-05-31T04:48:49.344Z,95233.48
2018-05-31T04:51:15.726Z,95234.53
2018-05-31T04:53:42.132Z,95230.94
2018-05-31T04:56:08.497Z,95239.04
2018-05-31T04:58:34.957Z,95234.92
2018-05-31T05:01:01.370Z,95231.24
2018-05-31T05:03:27.798Z,95229.57
2018-05-31T05:05:54.448Z,95238.02
2018-05-31T05:08:20.844Z,95227.98
2018-05-31T05:10:47.566Z,95240.16
2018-05-31T05:13:14.728Z,95210.84
2018-05-31T05:15:41.200Z,95240.22
2018-05-31T05:18:07.600Z,95243.44
2018-05-31T05:20:33.960Z,95242.72
2018-05-31T05:23:00.335Z,95239.81
2018-05-31T05:25:26.738Z,95248.27
2018-05-31T05:27:53.167Z,95247.56
2018-05-31T05:30:19.577Z,95223.16
2018-05-31T05:32:45.930Z,95244.52
2018-05-31T05:35:13.352Z,95221.87
2018-05-31T05:37:39.691Z,95228.17
2018-05-31T05:40:06.077Z,95223.91
2018-05-31T05:42:33.208Z,95223.39
2018-05-31T05:44:59.548Z,95223.91
2018-05-31T05:47:25.980Z,95227.17
2018-05-31T05:49:52.350Z,95242.56
2018-05-31T05:52:18.775Z,95239.44
2018-05-31T05:54:45.140Z,95232.51
2018-05-31T05:57:11.612Z,95224.54
2018-05-31T05:59:37.974Z,95248.25
2018-05-31T06:02:04.315Z,95244.31
2018-05-31T06:04:30.701Z,95224.76
2018-05-31T06:06:57.139Z,95215.50
2018-05-31T06:09:23.981Z,95241.42
2018-05-31T06:11:50.449Z,95223.59
2018-05-31T06:14:16.777Z,95233.78
2018-05-31T06:16:43.154Z,95228.87
2018-05-31T06:19:09.644Z,95239.91
2018-05-31T06:21:36.044Z,95241.66
2018-05-31T06:24:02.389Z,95236.49
2018-05-31T06:26:28.894Z,95245.23
2018-05-31T06:28:55.235Z,95221.96
2018-05-31T06:31:21.594Z,95216.48
2018-05-31T06:33:47.993Z,95239.97
2018-05-31T06:36:14.450Z,95235.00
2018-05-31T06:38:41.086Z,95218.08
2018-05-31T06:41:07.536Z,95229.37
2018-05-31T06:43:33.909Z,95225.34
2018-05-31T06:46:00.371Z,95231.45
2018-05-31T06:48:26.720Z,95234.70
2018-05-31T06:50:53.083Z,95227.41
2018-05-31T06:53:19.515Z,95230.62
2018-05-31T06:55:45.907Z,95227.42
2018-05-31T06:58:12.241Z,95230.89
2018-05-31T07:00:38.602Z,95205.23
2018-05-31T07:03:05.336Z,95239.42
2018-05-31T07:05:31.785Z,95231.66
2018-05-31T07:07:58.349Z,95234.55
2018-05-31T07:10:25.388Z,95238.12
2018-05-31T07:12:51.753Z,95240.53
2018-05-31T07:15:18.458Z,95239.66
2018-05-31T07:17:45.964Z,95198.41
2018-05-31T07:20:12.539Z,95232.16
2018-05-31T07:22:39.133Z,95235.16
2018-05-31T07:25:05.535Z,95213.55
2018-05-31T07:27:31.921Z,95222.02
2018-05-31T07:29:58.499Z,95222.73
2018-05-31T07:32:25.137Z,95230.38
2018-05-31T07:34:51.568Z,95220.20
2018-05-31T07:37:17.972Z,95212.29
2018-05-31T07:39:44.859Z,95209.30
2018-05-31T07:42:12.209Z,95205.97
2018-05-31T07:44:39.115Z,95206.55
2018-05-31T07:47:05.892Z,95196.94
2018-05-31T07:49:32.258Z,95222.52
2018-05-31T07:51:59.272Z,95204.30
2018-05-31T07:54:25.984Z,95204.78
2018-05-31T07:56:52.446Z,95212.93
2018-05-31T07:59:19.061Z,95202.87
2018-05-31T08:01:45.700Z,95194.84
2018-05-31T08:04:12.164Z,95209.58
2018-05-31T08:06:39.144Z,95211.23
2018-05-31T08:09:05.661Z,95215.44
2018-05-31T08:11:32.573Z,95210.70
2018-05-31T08:13:59.324Z,95184.85
2018-05-31T08:16:25.773Z,95210.20
2018-05-31T08:18:52.255Z,95209.56
2018-05-31T08:21:18.811Z,95189.06
2018-05-31T08:23:45.376Z,95206.47
2018-05-31T08:26:12.323Z,95201.50
2018-05-31T08:28:39.030Z,95180.59
2018-05-31T08:31:05.782Z,95193.44
2018-05-31T08:33:33.775Z,95198.77
2018-05-31T08:36:00.760Z,95179.80
2018-05-31T08:38:27.266Z,95194.73
2018-05-31T08:40:53.845Z,95197.27
2018-05-31T08:43:20.675Z,95191.73
2018-05-31T08:45:47.160Z,95173.66
2018-05-31T08:48:13.655Z,95187.50
2018-05-31T08:50:40.201Z,95175.86
2018-05-31T08:53:06.574Z,95158.33
2018-05-31T08:55:34.270Z,95163.09
2018-05-31T08:58:01.065Z,95157.28
2018-05-31T09:00:27.586Z,95178.68
2018-05-31T09:02:53.992Z,95176.33
2018-05-31T09:05:20.713Z,95172.92
2018-05-31T09:07:47.407Z,95164.98
2018-05-31T09:10:13.961Z,95181.89
2018-05-31T09:12:40.945Z,95179.30
2018-05-31T09:15:07.615Z,95166.30
2018-05-31T09:17:34.260Z,95162.42
2018-05-31T09:20:02.075Z,95170.85
2018-05-31T09:22:28.540Z,95175.91
2018-05-31T09:24:55.167Z,95157.92
2018-05-31T09:27:21.874Z,95159.39
2018-05-31T09:29:48.663Z,95168.24
2018-05-31T09:32:15.927Z,95155.37
2018-05-31T09:34:42.541Z,95152.45
2018-05-31T09:37:09.133Z,95160.63
2018-05-31T09:39:35.712Z,95139.96
2018-05-31T09:42:04.843Z,95149.05
2018-05-31T09:44:31.755Z,95143.58
2018-05-31T09:47:02.077Z,95141.61
2018-05-31T09:49:29.039Z,95126.47
2018-05-31T09:51:56.064Z,95131.88
2018-05-31T09:54:22.724Z,95149.22
2018-05-31T09:56:49.172Z,95140.75
2018-05-31T09:59:15.815Z,95130.64
2018-05-31T10:01:43.194Z,95112.00
2018-05-31T10:04:10.028Z,95111.41
2018-05-31T10:06:37.143Z,95123.73
2018-05-31T10:09:04.346Z,95123.83
2018-05-31T10:11:31.057Z,95122.81
2018-05-31T10:13:57.745Z,95100.39
2018-05-31T10:16:24.380Z,95112.88
2018-05-31T10:18:52.079Z,95105.52
2018-05-31T10:21:20.309Z,95099.65
2018-05-31T10:23:46.751Z,95111.08
2018-05-31T10:26:13.250Z,95111.08
2018-05-31T10:28:39.973Z,95091.53
2018-05-31T10:31:06.503Z,95095.66
2018-05-31T10:33:33.449Z,95097.56
2018-05-31T10:36:00.250Z,95091.37
2018-05-31T10:38:29.181Z,95085.96
2018-05-31T10:40:55.709Z,95094.98
2018-05-31T10:43:22.199Z,95094.97
2018-05-31T10:45:48.837Z,95094.71
2018-05-31T10:48:18.956Z,95104.95
2018-05-31T10:50:54.333Z,95091.16
2018-05-31T10:53:21.406Z,95080.72
2018-05-31T10:55:48.055Z,95073.92
2018-05-31T10:58:14.868Z,95085.45
2018-05-31T11:00:41.714Z,95077.33
2018-05-31T11:03:08.333Z,95091.07
2018-05-31T11:05:35.092Z,95070.73
2018-05-31T11:08:01.977Z,95066.58
2018-05-31T11:15:47.022Z,95077.28
2018-05-31T11:18:14.018Z,95071.95
2018-05-31T11:20:41.070Z,95068.81
2018-05-31T11:23:07.910Z,95060.59
2018-05-31T11:25:35.255Z,95067.93
2018-05-31T11:28:05.646Z,95054.79
2018-05-31T11:33:11.299Z,95062.77
2018-05-31T11:35:37.818Z,95061.40
2018-05-31T11:38:04.369Z,95053.22
2018-05-31T11:40:30.764Z,95075.50
2018-05-31T11:42:57.644Z,95055.27
2018-05-31T11:45:24.157Z,95045.59
2018-05-31T11:47:50.679Z,95063.70
2018-05-31T11:50:17.475Z,95023.04
2018-05-31T11:52:43.959Z,95038.30
2018-05-31T11:55:10.669Z,95056.09
2018-05-31T11:57:37.413Z,95053.77
2018-05-31T12:00:04.073Z,95036.12
2018-05-31T12:02:30.757Z,95023.27
2018-05-31T12:04:57.332Z,95026.72
2018-05-31T12:07:23.725Z,95034.48
2018-05-31T12:09:50.392Z,95006.21
2018-05-31T12:12:16.890Z,95030.89
2018-05-31T12:14:43.696Z,95016.84
2018-05-31T12:17:10.445Z,95034.01
2018-05-31T12:19:36.983Z,95021.02
2018-05-31T12:22:03.761Z,94998.27
2018-05-31T12:24:30.383Z,95027.89
2018-05-31T12:26:57.043Z,95005.75
2018-05-31T12:29:23.569Z,95027.16
2018-05-31T12:31:50.002Z,95010.98
2018-05-31T12:34:18.186Z,95013.77
2018-05-31T12:36:44.629Z,94997.97
2018-05-31T12:39:11.013Z,95008.23
2018-05-31T12:41:37.502Z,95008.37
2018-05-31T12:44:03.981Z,95003.93
2018-05-31T12:46:30.423Z,94997.95
2018-05-31T12:48:56.886Z,94999.72
2018-05-31T12:51:23.315Z,94988.41
2018-05-31T12:53:50.033Z,94977.98
2018-05-31T12:56:16.565Z,94987.19
2018-05-31T12:58:43.521Z,94980.07
2018-05-31T13:01:12.623Z,94981.16
2018-05-31T13:03:39.207Z,94973.66
2018-05-31T13:06:05.750Z,94982.53
2018-05-31T13:08:32.306Z,94976.42
2018-05-31T13:10:58.851Z,94970.59
2018-05-31T13:13:25.308Z,94961.88
2018-05-31T13:15:53.899Z,94949.56
2018-05-31T13:18:20.524Z,94951.19
2018-05-31T13:20:47.171Z,94966.80
2018-05-31T13:23:13.622Z,94970.36
2018-05-31T13:25:41.353Z,94965.10
2018-05-31T13:28:07.956Z,94956.38
2018-05-31T13:30:34.809Z,94963.03
2018-05-31T13:33:01.476Z,94966.09
2018-05-31T13:35:30.325Z,94959.14
2018-05-31T13:37:56.824Z,94945.33
2018-05-31T13:40:26.938Z,94964.23
2018-05-31T13:42:53.805Z,94949.50
2018-05-31T13:45:20.416Z,94966.50
2018-05-31T13:47:46.988Z,94953.20
2018-05-31T13:52:45.392Z,94958.30
2018-05-31T13:55:12.225Z,94942.03
2018-05-31T13:57:40.411Z,94939.25
2018-05-31T14:00:07.388Z,94943.61
2018-05-31T14:02:34.206Z,94939.59
2018-05-31T14:05:01.074Z,94944.23
2018-05-31T14:07:27.761Z,94949.13
2018-05-31T14:09:54.146Z,94933.15
2018-05-31T14:12:20.978Z,94944.88
2018-05-31T14:14:48.594Z,94945.03
2018-05-31T14:17:15.219Z,94941.27
2018-05-31T14:19:41.863Z,94914.55
2018-05-31T14:22:08.572Z,94932.02
2018-05-31T14:24:35.249Z,94924.06
2018-05-31T14:27:01.907Z,94930.31
2018-05-31T14:29:28.828Z,94924.87
2018-05-31T14:31:55.496Z,94927.47
2018-05-31T14:34:22.207Z,94931.28
2018-05-31T14:36:48.793Z,94928.85
2018-05-31T14:39:15.679Z,94920.39
2018-05-31T14:41:42.267Z,94931.80
2018-05-31T14:44:09.713Z,94909.56
2018-05-31T14:46:37.473Z,94916.38
2018-05-31T14:49:03.908Z,94926.02
2018-05-31T14:51:30.681Z,94902.81
2018-05-31T14:53:57.634Z,94919.07
2018-05-31T14:56:24.120Z,94919.92
2018-05-31T14:58:50.507Z,94906.24
2018-05-31T15:01:16.940Z,94909.47
2018-05-31T15:03:43.610Z,94897.23
2018-05-31T15:06:10.399Z,94906.34
2018-05-31T15:08:37.238Z,94912.30
2018-05-31T15:11:03.859Z,94901.70
2018-05-31T15:13:30.576Z,94903.05
2018-05-31T15:15:57.354Z,94892.55
2018-05-31T15:18:23.855Z,94909.34
2018-05-31T15:20:50.287Z,94911.64
2018-05-31T15:23:16.653Z,94921.43
2018-05-31T15:25:43.389Z,94901.21
2018-05-31T15:28:10.988Z,94903.80
2018-05-31T15:30:37.469Z,94895.02
2018-05-31T15:33:04.025Z,94896.78
2018-05-31T15:35:30.436Z,94892.70
2018-05-31T15:37:57.574Z,94900.26
2018-05-31T15:40:24.055Z,94897.73
2018-05-31T15:42:50.441Z,94904.27
2018-05-31T15:45:16.844Z,94892.45
2018-05-31T15:47:43.322Z,94884.74
2018-05-31T15:50:09.841Z,94910.48
2018-05-31T15:52:36.342Z,94911.49
2018-05-31T15:55:02.958Z,94913.12
2018-05-31T15:57:29.615Z,94910.55
2018-05-31T15:59:55.953Z,94917.30
2018-05-31T16:02:22.349Z,94904.64
2018-05-31T16:04:48.914Z,94915.59
2018-05-31T16:07:15.279Z,94903.84
2018-05-31T16:09:41.781Z,94925.34
2018-05-31T16:12:08.168Z,94895.20
2018-05-31T16:14:34.496Z,94917.58
2018-05-31T16:17:02.314Z,94919.89
2018-05-31T16:19:28.796Z,94919.68
2018-05-31T16:21:55.200Z,94889.27
2018-05-31T16:24:21.565Z,94923.09
2018-05-31T16:26:47.895Z,94931.32
2018-05-31T16:29:14.337Z,94912.41
2018-05-31T16:31:41.599Z,94916.63
2018-05-31T16:34:07.999Z,94926.23
2018-05-31T16:36:34.559Z,94916.69
2018-05-31T16:39:01.742Z,94911.05
2018-05-31T16:41:29.196Z,94916.03
2018-05-31T16:43:55.637Z,94927.58
2018-05-31T16:46:22.020Z,94924.27
2018-05-31T16:48:48.395Z,94929.75
2018-05-31T16:51:15.876Z,94932.83
2018-05-31T16:53:42.403Z,94936.77
2018-05-31T16:56:09.381Z,94936.45
2018-05-31T16:58:35.780Z,94931.34
2018-05-31T17:01:02.184Z,94930.28
2018-05-31T17:03:28.581Z,94931.05
2018-05-31T17:05:55.008Z,94936.44
2018-05-31T17:08:21.529Z,94944.34
2018-05-31T17:10:47.881Z,94917.33
2018-05-31T17:13:15.538Z,94944.90
2018-05-31T17:15:42.001Z,94953.59
2018-05-31T17:18:08.683Z,94951.56
2018-05-31T17:20:35.016Z,94947.05
2018-05-31T17:23:01.361Z,94947.39
2018-05-31T17:25:27.726Z,94958.77
2018-05-31T17:27:54.476Z,94955.44
2018-05-31T17:30:20.885Z,94950.38
2018-05-31T17:32:47.287Z,94953.38
2018-05-31T17:35:13.665Z,94934.27
2018-05-31T17:37:40.023Z,94936.10
2018-05-31T17:40:06.432Z,94965.16
2018-05-31T17:42:32.804Z,94954.75
2018-05-31T17:44:59.735Z,94954.89
2018-05-31T17:47:26.089Z,94950.39
2018-05-31T17:49:52.525Z,94965.77
2018-05-31T17:52:18.904Z,94976.73
2018-05-31T17:54:45.700Z,94964.20
2018-05-31T17:57:12.182Z,94968.66
2018-05-31T17:59:38.554Z,94972.20
2018-05-31T18:02:05.754Z,94966.95
2018-05-31T18:04:32.146Z,94959.58
2018-05-31T18:06:58.539Z,94984.70
2018-05-31T18:09:24.936Z,94979.08
2018-05-31T18:11:51.344Z,94987.98
2018-05-31T18:14:17.771Z,94997.66
2018-05-31T18:16:44.101Z,94987.17
2018-05-31T18:19:10.654Z,94998.12
2018-05-31T18:21:37.026Z,94998.80
2018-05-31T18:24:03.404Z,95010.38
2018-05-31T18:26:31.096Z,95007.93
2018-05-31T18:28:57.548Z,95017.93
2018-05-31T18:31:23.940Z,94982.92
2018-05-31T18:33:50.340Z,95019.42
2018-05-31T18:36:16.759Z,95021.42
2018-05-31T18:38:43.097Z,95027.89
2018-05-31T18:41:09.522Z,95030.67
2018-05-31T18:43:36.314Z,95026.27
2018-05-31T18:46:02.636Z,95031.50
2018-05-31T18:48:29.162Z,95018.48
2018-05-31T18:50:55.479Z,95035.50
2018-05-31T18:53:21.859Z,95050.09
2018-05-31T18:55:48.196Z,95047.70
2018-05-31T18:58:14.649Z,95046.54
2018-05-31T19:00:41.379Z,95048.87
2018-05-31T19:03:08.222Z,95057.11
2018-05-31T19:05:34.747Z,95055.05
2018-05-31T19:08:01.102Z,95045.81
2018-05-31T19:10:27.528Z,95064.46
2018-05-31T19:12:55.187Z,95064.51
2018-05-31T19:15:21.769Z,95062.95
2018-05-31T19:17:47.892Z,95074.14
2018-05-31T19:20:14.959Z,95074.41
2018-05-31T19:22:41.279Z,95066.16
2018-05-31T19:25:07.657Z,95049.61
2018-05-31T19:27:33.995Z,95076.52
2018-05-31T19:30:00.361Z,95070.93
2018-05-31T19:32:26.869Z,95069.37
2018-05-31T19:34:54.435Z,95068.14
2018-05-31T19:37:20.813Z,95072.91
2018-05-31T19:39:47.238Z,95059.96
2018-05-31T19:42:13.554Z,95076.71
2018-05-31T19:44:40.047Z,95080.75
2018-05-31T19:47:06.385Z,95072.91
2018-05-31T19:49:32.916Z,95069.82
2018-05-31T19:52:00.257Z,95061.31
2018-05-31T19:54:26.632Z,95070.30
2018-05-31T19:56:53.044Z,95060.63
2018-05-31T19:59:19.424Z,95064.36
2018-05-31T20:01:45.792Z,95058.38
2018-05-31T20:04:12.156Z,95061.23
2018-05-31T20:06:38.552Z,95058.21
2018-05-31T20:09:05.426Z,95075.52
2018-05-31T20:11:31.772Z,95052.16
2018-05-31T20:13:58.155Z,95064.41
2018-05-31T20:16:24.858Z,95079.93
2018-05-31T20:18:51.239Z,95087.36
2018-05-31T20:21:17.729Z,95089.12
2018-05-31T20:23:44.272Z,95079.58
2018-05-31T20:26:10.866Z,95087.02
2018-05-31T20:28:37.249Z,95096.75
2018-05-31T20:31:03.585Z,95080.17
2018-05-31T20:33:30.021Z,95078.69
2018-05-31T20:35:56.692Z,95103.48
2018-05-31T20:38:23.088Z,95098.72
2018-05-31T20:40:49.457Z,95095.98
2018-05-31T20:43:16.082Z,95097.63
2018-05-31T20:45:42.586Z,95094.58
2018-05-31T20:48:08.998Z,95092.84
2018-05-31T20:50:35.392Z,95105.92
2018-05-31T20:53:02.644Z,95098.64
2018-05-31T20:55:29.270Z,95099.16
2018-05-31T20:57:55.623Z,95102.42
2018-05-31T21:00:21.983Z,95100.75
2018-05-31T21:02:48.358Z,95097.84
2018-05-31T21:05:14.737Z,95099.31
2018-05-31T21:07:41.121Z,95109.07
2018-05-31T21:10:07.525Z,95106.89
2018-05-31T21:12:34.098Z,95106.95
2018-05-31T21:15:00.686Z,95106.40
2018-05-31T21:17:27.027Z,95114.98
2018-05-31T21:19:53.457Z,95117.53
2018-05-31T21:22:19.784Z,95116.23
2018-05-31T21:24:46.102Z,95117.06
2018-05-31T21:27:12.442Z,95097.37
2018-05-31T21:29:38.835Z,95119.41
2018-05-31T21:32:05.173Z,95123.09
2018-05-31T21:34:31.488Z,95105.48
2018-05-31T21:36:57.867Z,95114.94
2018-05-31T21:39:24.256Z,95120.11
2018-05-31T21:41:50.638Z,95131.58
2018-05-31T21:44:18.633Z,95125.81
2018-05-31T21:46:45.012Z,95117.64
2018-05-31T21:49:11.415Z,95118.16
2018-05-31T21:51:37.792Z,95120.95
2018-05-31T21:54:04.191Z,95114.08
2018-05-31T21:56:31.332Z,95112.42
2018-05-31T21:58:57.713Z,95126.89
2018-05-31T22:01:24.042Z,95127.56
2018-05-31T22:03:51.338Z,95122.41
2018-05-31T22:06:17.672Z,95127.58
2018-05-31T22:08:44.050Z,95126.08
2018-05-31T22:11:10.424Z,95127.67
2018-05-31T22:13:37.169Z,95125.00
2018-05-31T22:16:03.712Z,95121.28
2018-05-31T22:18:30.093Z,95119.98
2018-05-31T22:20:56.459Z,95125.92
2018-05-31T22:23:22.792Z,95134.77
2018-05-31T22:25:49.160Z,95115.90
2018-05-31T22:28:15.671Z,95116.07
2018-05-31T22:30:42.028Z,95131.50
2018-05-31T22:33:08.492Z,95133.58
2018-05-31T22:35:34.864Z,95122.31
2018-05-31T22:38:01.203Z,95120.05
2018-05-31T22:40:27.580Z,95128.05
2018-05-31T22:42:53.912Z,95118.84
2018-05-31T22:45:20.237Z,95136.53
2018-05-31T22:47:46.601Z,95128.21
2018-05-31T22:50:13.019Z,95132.29
2018-05-31T22:52:39.352Z,95117.16
2018-05-31T22:55:05.820Z,95103.30
2018-05-31T22:57:32.216Z,95124.80
2018-05-31T22:59:58.588Z,95113.78
2018-05-31T23:02:24.981Z,95114.14
2018-05-31T23:04:51.361Z,95120.15
2018-05-31T23:07:17.692Z,95122.98
2018-05-31T23:09:44.063Z,95121.63
2018-05-31T23:12:11.408Z,95117.87
2018-05-31T23:14:37.933Z,95124.54
2018-05-31T23:17:04.444Z,95113.84
2018-05-31T23:19:30.788Z,95106.07
2018-05-31T23:21:57.146Z,95128.26
2018-05-31T23:24:23.747Z,95124.23
2018-05-31T23:26:50.123Z,95110.41
2018-05-31T23:29:17.589Z,95108.58
2018-05-31T23:31:43.956Z,95102.90
2018-05-31T23:34:10.339Z,95120.08
2018-05-31T23:36:36.672Z,95121.07
2018-05-31T23:39:03.112Z,95123.91
2018-05-31T23:41:30.051Z,95117.39
2018-05-31T23:43:56.463Z,95112.30
2018-05-31T23:46:22.866Z,95117.09
2018-05-31T23:48:49.219Z,95112.30
2018-05-31T23:51:16.432Z,95114.66
2018-05-31T23:53:42.813Z,95102.47
2018-05-31T23:56:11.260Z,95109.83
2018-05-31T23:58:37.702Z,95088.94
